sensor_id;sensor_type;location;lat;lon;timestamp;P1;durP1;ratioP1;P2;durP2;ratioP2
57023;SDS011;42916;54.346;18.562;2023-04-24T00:01:45;28.00;;;18.20;;
57023;SDS011;42916;54.346;18.562;2023-04-24T00:04:12;26.10;;;18.40;;
57023;SDS011;42916;54.346;18.562;2023-04-24T00:06:42;32.40;;;18.90;;
57023;SDS011;42916;54.346;18.562;2023-04-24T00:09:09;37.90;;;18.50;;
57023;SDS011;42916;54.346;18.562;2023-04-24T00:11:36;44.10;;;19.30;;
57023;SDS011;42916;54.346;18.562;2023-04-24T00:14:03;39.80;;;18.60;;
57023;SDS011;42916;54.346;18.562;2023-04-24T00:16:30;39.80;;;19.20;;
57023;SDS011;42916;54.346;18.562;2023-04-24T00:18:56;39.60;;;19.60;;
57023;SDS011;42916;54.346;18.562;2023-04-24T00:21:23;42.60;;;20.40;;
57023;SDS011;42916;54.346;18.562;2023-04-24T00:23:52;38.20;;;19.90;;
57023;SDS011;42916;54.346;18.562;2023-04-24T00:26:19;38.10;;;20.60;;
57023;SDS011;42916;54.346;18.562;2023-04-24T00:28:46;36.50;;;20.70;;
57023;SDS011;42916;54.346;18.562;2023-04-24T00:31:13;40.00;;;22.00;;
57023;SDS011;42916;54.346;18.562;2023-04-24T00:33:39;36.10;;;21.20;;
57023;SDS011;42916;54.346;18.562;2023-04-24T00:36:06;40.30;;;21.20;;
57023;SDS011;42916;54.346;18.562;2023-04-24T00:38:33;30.70;;;19.60;;
57023;SDS011;42916;54.346;18.562;2023-04-24T00:41:00;30.40;;;18.50;;
57023;SDS011;42916;54.346;18.562;2023-04-24T00:43:27;32.60;;;18.80;;
57023;SDS011;42916;54.346;18.562;2023-04-24T00:45:54;29.70;;;18.60;;
57023;SDS011;42916;54.346;18.562;2023-04-24T00:48:21;33.90;;;19.00;;
57023;SDS011;42916;54.346;18.562;2023-04-24T00:50:50;33.00;;;19.40;;
57023;SDS011;42916;54.346;18.562;2023-04-24T00:53:17;37.50;;;21.30;;
57023;SDS011;42916;54.346;18.562;2023-04-24T00:55:44;33.80;;;21.40;;
57023;SDS011;42916;54.346;18.562;2023-04-24T00:58:11;31.90;;;19.40;;
57023;SDS011;42916;54.346;18.562;2023-04-24T01:00:38;33.60;;;19.80;;
57023;SDS011;42916;54.346;18.562;2023-04-24T01:03:05;32.30;;;19.40;;
57023;SDS011;42916;54.346;18.562;2023-04-24T01:05:34;36.20;;;20.50;;
57023;SDS011;42916;54.346;18.562;2023-04-24T01:08:01;32.90;;;20.40;;
57023;SDS011;42916;54.346;18.562;2023-04-24T01:10:30;30.20;;;20.00;;
57023;SDS011;42916;54.346;18.562;2023-04-24T01:12:59;32.50;;;20.90;;
57023;SDS011;42916;54.346;18.562;2023-04-24T01:15:26;30.10;;;19.80;;
57023;SDS011;42916;54.346;18.562;2023-04-24T01:17:53;30.70;;;20.50;;
57023;SDS011;42916;54.346;18.562;2023-04-24T01:20:21;29.40;;;19.40;;
57023;SDS011;42916;54.346;18.562;2023-04-24T01:22:48;30.60;;;19.30;;
57023;SDS011;42916;54.346;18.562;2023-04-24T01:25:15;30.00;;;19.60;;
57023;SDS011;42916;54.346;18.562;2023-04-24T01:27:42;36.40;;;21.40;;
57023;SDS011;42916;54.346;18.562;2023-04-24T01:30:09;34.20;;;22.10;;
57023;SDS011;42916;54.346;18.562;2023-04-24T01:32:37;37.20;;;22.50;;
57023;SDS011;42916;54.346;18.562;2023-04-24T01:35:05;37.70;;;22.30;;
57023;SDS011;42916;54.346;18.562;2023-04-24T01:37:33;40.00;;;22.80;;
57023;SDS011;42916;54.346;18.562;2023-04-24T01:40:00;36.60;;;23.80;;
57023;SDS011;42916;54.346;18.562;2023-04-24T01:42:27;36.50;;;21.50;;
57023;SDS011;42916;54.346;18.562;2023-04-24T01:44:54;34.90;;;21.10;;
57023;SDS011;42916;54.346;18.562;2023-04-24T01:47:21;38.90;;;22.40;;
57023;SDS011;42916;54.346;18.562;2023-04-24T01:49:48;43.70;;;23.90;;
57023;SDS011;42916;54.346;18.562;2023-04-24T01:52:17;41.30;;;23.30;;
57023;SDS011;42916;54.346;18.562;2023-04-24T01:54:44;42.00;;;23.70;;
57023;SDS011;42916;54.346;18.562;2023-04-24T01:57:11;43.50;;;23.30;;
57023;SDS011;42916;54.346;18.562;2023-04-24T01:59:38;44.00;;;23.50;;
57023;SDS011;42916;54.346;18.562;2023-04-24T02:02:05;39.90;;;23.40;;
57023;SDS011;42916;54.346;18.562;2023-04-24T02:04:32;37.70;;;21.40;;
57023;SDS011;42916;54.346;18.562;2023-04-24T02:06:58;36.50;;;18.70;;
57023;SDS011;42916;54.346;18.562;2023-04-24T02:09:25;38.60;;;19.30;;
57023;SDS011;42916;54.346;18.562;2023-04-24T02:11:52;33.30;;;16.90;;
57023;SDS011;42916;54.346;18.562;2023-04-24T02:14:19;35.20;;;16.70;;
57023;SDS011;42916;54.346;18.562;2023-04-24T02:16:46;35.20;;;17.10;;
57023;SDS011;42916;54.346;18.562;2023-04-24T02:19:12;35.00;;;17.10;;
57023;SDS011;42916;54.346;18.562;2023-04-24T02:21:39;36.20;;;17.20;;
57023;SDS011;42916;54.346;18.562;2023-04-24T02:24:08;36.40;;;18.30;;
57023;SDS011;42916;54.346;18.562;2023-04-24T02:26:35;38.10;;;17.40;;
57023;SDS011;42916;54.346;18.562;2023-04-24T02:29:02;33.30;;;16.70;;
57023;SDS011;42916;54.346;18.562;2023-04-24T02:31:28;33.10;;;16.80;;
57023;SDS011;42916;54.346;18.562;2023-04-24T02:33:55;37.70;;;17.70;;
57023;SDS011;42916;54.346;18.562;2023-04-24T02:36:22;34.90;;;18.60;;
57023;SDS011;42916;54.346;18.562;2023-04-24T02:38:49;35.90;;;18.60;;
57023;SDS011;42916;54.346;18.562;2023-04-24T02:41:15;35.10;;;17.70;;
57023;SDS011;42916;54.346;18.562;2023-04-24T02:43:42;33.60;;;16.50;;
57023;SDS011;42916;54.346;18.562;2023-04-24T02:46:09;32.20;;;16.70;;
57023;SDS011;42916;54.346;18.562;2023-04-24T02:48:36;32.10;;;16.00;;
57023;SDS011;42916;54.346;18.562;2023-04-24T02:51:03;31.50;;;16.50;;
57023;SDS011;42916;54.346;18.562;2023-04-24T02:53:30;42.60;;;18.80;;
57023;SDS011;42916;54.346;18.562;2023-04-24T02:55:57;38.00;;;19.60;;
57023;SDS011;42916;54.346;18.562;2023-04-24T02:58:24;39.60;;;19.10;;
57023;SDS011;42916;54.346;18.562;2023-04-24T03:00:54;39.20;;;19.10;;
57023;SDS011;42916;54.346;18.562;2023-04-24T03:03:24;39.00;;;18.90;;
57023;SDS011;42916;54.346;18.562;2023-04-24T03:05:52;34.70;;;17.30;;
57023;SDS011;42916;54.346;18.562;2023-04-24T03:08:18;37.20;;;17.70;;
57023;SDS011;42916;54.346;18.562;2023-04-24T03:10:45;37.40;;;18.30;;
57023;SDS011;42916;54.346;18.562;2023-04-24T03:13:12;39.20;;;19.10;;
57023;SDS011;42916;54.346;18.562;2023-04-24T03:15:39;35.60;;;17.50;;
57023;SDS011;42916;54.346;18.562;2023-04-24T03:18:05;39.10;;;18.30;;
57023;SDS011;42916;54.346;18.562;2023-04-24T03:20:32;36.30;;;17.30;;
57023;SDS011;42916;54.346;18.562;2023-04-24T03:22:59;38.80;;;18.20;;
57023;SDS011;42916;54.346;18.562;2023-04-24T03:25:26;38.20;;;16.40;;
57023;SDS011;42916;54.346;18.562;2023-04-24T03:27:53;43.60;;;18.70;;
57023;SDS011;42916;54.346;18.562;2023-04-24T03:30:29;35.90;;;16.70;;
57023;SDS011;42916;54.346;18.562;2023-04-24T03:32:59;30.90;;;16.60;;
57023;SDS011;42916;54.346;18.562;2023-04-24T03:35:28;33.40;;;16.80;;
57023;SDS011;42916;54.346;18.562;2023-04-24T03:37:56;30.20;;;17.00;;
57023;SDS011;42916;54.346;18.562;2023-04-24T03:40:55;31.10;;;15.90;;
57023;SDS011;42916;54.346;18.562;2023-04-24T03:43:48;27.70;;;14.30;;
57023;SDS011;42916;54.346;18.562;2023-04-24T03:46:15;33.50;;;15.50;;
57023;SDS011;42916;54.346;18.562;2023-04-24T03:48:47;30.50;;;15.40;;
57023;SDS011;42916;54.346;18.562;2023-04-24T03:51:15;28.20;;;14.90;;
57023;SDS011;42916;54.346;18.562;2023-04-24T03:53:44;29.10;;;15.10;;
57023;SDS011;42916;54.346;18.562;2023-04-24T03:56:11;27.60;;;14.90;;
57023;SDS011;42916;54.346;18.562;2023-04-24T03:58:38;29.60;;;15.90;;
57023;SDS011;42916;54.346;18.562;2023-04-24T04:01:05;29.70;;;15.50;;
57023;SDS011;42916;54.346;18.562;2023-04-24T04:03:52;27.80;;;14.30;;
57023;SDS011;42916;54.346;18.562;2023-04-24T04:06:21;26.50;;;14.20;;
57023;SDS011;42916;54.346;18.562;2023-04-24T04:08:48;27.00;;;14.50;;
57023;SDS011;42916;54.346;18.562;2023-04-24T04:11:15;28.20;;;14.70;;
57023;SDS011;42916;54.346;18.562;2023-04-24T04:13:42;29.00;;;15.00;;
57023;SDS011;42916;54.346;18.562;2023-04-24T04:16:10;31.30;;;15.60;;
57023;SDS011;42916;54.346;18.562;2023-04-24T04:18:37;28.70;;;15.20;;
57023;SDS011;42916;54.346;18.562;2023-04-24T04:21:05;27.10;;;15.50;;
57023;SDS011;42916;54.346;18.562;2023-04-24T04:23:32;27.70;;;15.50;;
57023;SDS011;42916;54.346;18.562;2023-04-24T04:26:05;29.80;;;15.60;;
57023;SDS011;42916;54.346;18.562;2023-04-24T04:28:52;26.00;;;15.10;;
57023;SDS011;42916;54.346;18.562;2023-04-24T04:31:20;28.40;;;15.20;;
57023;SDS011;42916;54.346;18.562;2023-04-24T04:33:48;28.30;;;15.00;;
57023;SDS011;42916;54.346;18.562;2023-04-24T04:36:15;28.70;;;16.40;;
57023;SDS011;42916;54.346;18.562;2023-04-24T04:38:45;30.70;;;16.50;;
57023;SDS011;42916;54.346;18.562;2023-04-24T04:41:23;25.60;;;15.00;;
57023;SDS011;42916;54.346;18.562;2023-04-24T04:43:50;30.00;;;14.90;;
57023;SDS011;42916;54.346;18.562;2023-04-24T04:46:17;28.70;;;15.90;;
57023;SDS011;42916;54.346;18.562;2023-04-24T04:48:57;26.60;;;15.10;;
57023;SDS011;42916;54.346;18.562;2023-04-24T04:51:24;29.70;;;15.50;;
57023;SDS011;42916;54.346;18.562;2023-04-24T04:53:51;25.70;;;14.40;;
57023;SDS011;42916;54.346;18.562;2023-04-24T04:56:18;24.70;;;14.20;;
57023;SDS011;42916;54.346;18.562;2023-04-24T04:58:46;26.70;;;14.80;;
57023;SDS011;42916;54.346;18.562;2023-04-24T05:01:15;28.70;;;13.30;;
57023;SDS011;42916;54.346;18.562;2023-04-24T05:03:45;28.90;;;14.60;;
57023;SDS011;42916;54.346;18.562;2023-04-24T05:06:14;27.10;;;14.00;;
57023;SDS011;42916;54.346;18.562;2023-04-24T05:08:41;25.30;;;14.00;;
57023;SDS011;42916;54.346;18.562;2023-04-24T05:11:11;26.70;;;14.00;;
57023;SDS011;42916;54.346;18.562;2023-04-24T05:13:39;23.20;;;12.30;;
57023;SDS011;42916;54.346;18.562;2023-04-24T05:16:08;22.00;;;12.30;;
57023;SDS011;42916;54.346;18.562;2023-04-24T05:18:35;26.00;;;12.30;;
57023;SDS011;42916;54.346;18.562;2023-04-24T05:21:02;19.80;;;11.50;;
57023;SDS011;42916;54.346;18.562;2023-04-24T05:23:29;25.20;;;12.50;;
57023;SDS011;42916;54.346;18.562;2023-04-24T05:25:56;25.50;;;12.10;;
57023;SDS011;42916;54.346;18.562;2023-04-24T05:28:23;19.60;;;11.30;;
57023;SDS011;42916;54.346;18.562;2023-04-24T05:31:01;22.50;;;12.30;;
57023;SDS011;42916;54.346;18.562;2023-04-24T05:33:29;19.60;;;11.20;;
57023;SDS011;42916;54.346;18.562;2023-04-24T05:35:56;17.00;;;11.30;;
57023;SDS011;42916;54.346;18.562;2023-04-24T05:38:23;18.60;;;11.10;;
57023;SDS011;42916;54.346;18.562;2023-04-24T05:40:50;20.70;;;11.30;;
57023;SDS011;42916;54.346;18.562;2023-04-24T05:43:17;21.10;;;11.70;;
57023;SDS011;42916;54.346;18.562;2023-04-24T05:45:44;21.20;;;11.90;;
57023;SDS011;42916;54.346;18.562;2023-04-24T05:48:11;20.10;;;11.90;;
57023;SDS011;42916;54.346;18.562;2023-04-24T05:50:38;22.00;;;11.50;;
57023;SDS011;42916;54.346;18.562;2023-04-24T05:53:05;21.30;;;11.80;;
57023;SDS011;42916;54.346;18.562;2023-04-24T05:55:34;21.90;;;12.20;;
57023;SDS011;42916;54.346;18.562;2023-04-24T05:58:02;20.80;;;12.30;;
57023;SDS011;42916;54.346;18.562;2023-04-24T06:00:30;24.10;;;12.10;;
57023;SDS011;42916;54.346;18.562;2023-04-24T06:03:03;21.60;;;12.30;;
57023;SDS011;42916;54.346;18.562;2023-04-24T06:05:31;21.60;;;12.40;;
57023;SDS011;42916;54.346;18.562;2023-04-24T06:07:57;21.20;;;12.30;;
57023;SDS011;42916;54.346;18.562;2023-04-24T06:10:27;23.20;;;12.70;;
57023;SDS011;42916;54.346;18.562;2023-04-24T06:12:54;23.80;;;12.70;;
57023;SDS011;42916;54.346;18.562;2023-04-24T06:15:27;22.40;;;12.50;;
57023;SDS011;42916;54.346;18.562;2023-04-24T06:17:59;22.20;;;13.50;;
57023;SDS011;42916;54.346;18.562;2023-04-24T06:20:26;22.40;;;12.90;;
57023;SDS011;42916;54.346;18.562;2023-04-24T06:22:53;28.30;;;13.90;;
57023;SDS011;42916;54.346;18.562;2023-04-24T06:25:20;28.10;;;13.60;;
57023;SDS011;42916;54.346;18.562;2023-04-24T06:27:47;27.80;;;14.20;;
57023;SDS011;42916;54.346;18.562;2023-04-24T06:30:13;24.70;;;13.20;;
57023;SDS011;42916;54.346;18.562;2023-04-24T06:32:40;29.20;;;13.90;;
57023;SDS011;42916;54.346;18.562;2023-04-24T06:35:07;29.40;;;13.00;;
57023;SDS011;42916;54.346;18.562;2023-04-24T06:37:36;27.90;;;12.80;;
57023;SDS011;42916;54.346;18.562;2023-04-24T06:40:03;23.90;;;11.90;;
57023;SDS011;42916;54.346;18.562;2023-04-24T06:42:30;19.70;;;11.80;;
57023;SDS011;42916;54.346;18.562;2023-04-24T06:44:56;28.60;;;12.10;;
57023;SDS011;42916;54.346;18.562;2023-04-24T06:47:23;23.20;;;11.20;;
57023;SDS011;42916;54.346;18.562;2023-04-24T06:49:50;25.70;;;11.30;;
57023;SDS011;42916;54.346;18.562;2023-04-24T06:52:18;21.10;;;12.00;;
57023;SDS011;42916;54.346;18.562;2023-04-24T06:54:46;19.70;;;10.60;;
57023;SDS011;42916;54.346;18.562;2023-04-24T06:57:12;20.40;;;11.50;;
57023;SDS011;42916;54.346;18.562;2023-04-24T06:59:39;15.70;;;9.50;;
57023;SDS011;42916;54.346;18.562;2023-04-24T07:02:06;19.40;;;9.90;;
57023;SDS011;42916;54.346;18.562;2023-04-24T07:04:33;19.90;;;10.00;;
57023;SDS011;42916;54.346;18.562;2023-04-24T07:06:59;23.90;;;10.80;;
57023;SDS011;42916;54.346;18.562;2023-04-24T07:09:27;18.50;;;10.90;;
57023;SDS011;42916;54.346;18.562;2023-04-24T07:11:54;18.80;;;10.60;;
57023;SDS011;42916;54.346;18.562;2023-04-24T07:14:22;18.40;;;10.30;;
57023;SDS011;42916;54.346;18.562;2023-04-24T07:16:49;15.80;;;9.30;;
57023;SDS011;42916;54.346;18.562;2023-04-24T07:19:16;16.50;;;8.90;;
57023;SDS011;42916;54.346;18.562;2023-04-24T07:21:43;15.30;;;8.30;;
57023;SDS011;42916;54.346;18.562;2023-04-24T07:24:09;16.10;;;9.50;;
57023;SDS011;42916;54.346;18.562;2023-04-24T07:26:37;14.90;;;9.70;;
57023;SDS011;42916;54.346;18.562;2023-04-24T07:29:05;18.00;;;9.60;;
57023;SDS011;42916;54.346;18.562;2023-04-24T07:31:33;18.20;;;11.10;;
57023;SDS011;42916;54.346;18.562;2023-04-24T07:34:00;14.50;;;8.90;;
57023;SDS011;42916;54.346;18.562;2023-04-24T07:36:27;16.40;;;9.30;;
57023;SDS011;42916;54.346;18.562;2023-04-24T07:38:54;16.60;;;9.20;;
57023;SDS011;42916;54.346;18.562;2023-04-24T07:41:22;14.80;;;9.90;;
57023;SDS011;42916;54.346;18.562;2023-04-24T07:43:50;11.80;;;7.90;;
57023;SDS011;42916;54.346;18.562;2023-04-24T07:46:17;14.50;;;8.30;;
57023;SDS011;42916;54.346;18.562;2023-04-24T07:48:44;16.30;;;8.70;;
57023;SDS011;42916;54.346;18.562;2023-04-24T07:51:12;11.80;;;8.30;;
57023;SDS011;42916;54.346;18.562;2023-04-24T07:53:39;16.80;;;9.30;;
57023;SDS011;42916;54.346;18.562;2023-04-24T07:56:06;13.40;;;8.60;;
57023;SDS011;42916;54.346;18.562;2023-04-24T07:58:33;14.60;;;8.90;;
57023;SDS011;42916;54.346;18.562;2023-04-24T08:01:01;15.00;;;8.80;;
57023;SDS011;42916;54.346;18.562;2023-04-24T08:03:28;14.00;;;9.00;;
57023;SDS011;42916;54.346;18.562;2023-04-24T08:05:54;15.10;;;9.50;;
57023;SDS011;42916;54.346;18.562;2023-04-24T08:08:21;18.60;;;10.30;;
57023;SDS011;42916;54.346;18.562;2023-04-24T08:10:49;17.60;;;10.00;;
57023;SDS011;42916;54.346;18.562;2023-04-24T08:13:16;12.80;;;9.40;;
57023;SDS011;42916;54.346;18.562;2023-04-24T08:15:42;18.10;;;10.70;;
57023;SDS011;42916;54.346;18.562;2023-04-24T08:18:09;14.50;;;10.10;;
57023;SDS011;42916;54.346;18.562;2023-04-24T08:20:38;14.30;;;9.30;;
57023;SDS011;42916;54.346;18.562;2023-04-24T08:23:05;17.20;;;10.10;;
57023;SDS011;42916;54.346;18.562;2023-04-24T08:25:31;15.40;;;9.90;;
57023;SDS011;42916;54.346;18.562;2023-04-24T08:27:58;16.10;;;10.20;;
57023;SDS011;42916;54.346;18.562;2023-04-24T08:30:25;16.00;;;10.40;;
57023;SDS011;42916;54.346;18.562;2023-04-24T08:32:52;15.30;;;10.40;;
57023;SDS011;42916;54.346;18.562;2023-04-24T08:35:19;17.00;;;11.20;;
57023;SDS011;42916;54.346;18.562;2023-04-24T08:37:45;15.40;;;11.60;;
57023;SDS011;42916;54.346;18.562;2023-04-24T08:40:13;18.70;;;11.20;;
57023;SDS011;42916;54.346;18.562;2023-04-24T08:42:41;16.60;;;11.80;;
57023;SDS011;42916;54.346;18.562;2023-04-24T08:45:12;20.00;;;12.20;;
57023;SDS011;42916;54.346;18.562;2023-04-24T08:47:39;18.70;;;12.30;;
57023;SDS011;42916;54.346;18.562;2023-04-24T08:50:07;19.20;;;12.90;;
57023;SDS011;42916;54.346;18.562;2023-04-24T08:52:35;19.20;;;13.20;;
57023;SDS011;42916;54.346;18.562;2023-04-24T08:55:03;17.60;;;13.30;;
57023;SDS011;42916;54.346;18.562;2023-04-24T08:57:30;16.90;;;12.70;;
57023;SDS011;42916;54.346;18.562;2023-04-24T08:59:58;20.20;;;12.40;;
57023;SDS011;42916;54.346;18.562;2023-04-24T09:02:26;17.30;;;12.00;;
57023;SDS011;42916;54.346;18.562;2023-04-24T09:04:55;18.40;;;12.60;;
57023;SDS011;42916;54.346;18.562;2023-04-24T09:07:24;17.10;;;12.70;;
57023;SDS011;42916;54.346;18.562;2023-04-24T09:09:54;19.50;;;13.10;;
57023;SDS011;42916;54.346;18.562;2023-04-24T09:12:21;18.60;;;13.70;;
57023;SDS011;42916;54.346;18.562;2023-04-24T09:14:48;21.80;;;14.00;;
57023;SDS011;42916;54.346;18.562;2023-04-24T09:17:16;19.20;;;14.80;;
57023;SDS011;42916;54.346;18.562;2023-04-24T09:19:43;17.80;;;13.20;;
57023;SDS011;42916;54.346;18.562;2023-04-24T09:22:10;19.90;;;14.60;;
57023;SDS011;42916;54.346;18.562;2023-04-24T09:24:37;18.70;;;13.60;;
57023;SDS011;42916;54.346;18.562;2023-04-24T09:27:05;19.60;;;15.00;;
57023;SDS011;42916;54.346;18.562;2023-04-24T09:29:31;19.70;;;15.00;;
57023;SDS011;42916;54.346;18.562;2023-04-24T09:31:59;18.70;;;14.40;;
57023;SDS011;42916;54.346;18.562;2023-04-24T09:34:26;20.00;;;14.80;;
57023;SDS011;42916;54.346;18.562;2023-04-24T09:36:53;20.10;;;14.70;;
57023;SDS011;42916;54.346;18.562;2023-04-24T09:39:21;20.30;;;14.10;;
57023;SDS011;42916;54.346;18.562;2023-04-24T09:41:52;18.40;;;13.40;;
57023;SDS011;42916;54.346;18.562;2023-04-24T09:44:23;16.60;;;14.10;;
57023;SDS011;42916;54.346;18.562;2023-04-24T09:46:56;21.40;;;15.80;;
57023;SDS011;42916;54.346;18.562;2023-04-24T09:49:28;23.30;;;15.20;;
57023;SDS011;42916;54.346;18.562;2023-04-24T09:52:06;23.60;;;15.50;;
57023;SDS011;42916;54.346;18.562;2023-04-24T09:54:34;21.20;;;15.70;;
57023;SDS011;42916;54.346;18.562;2023-04-24T09:59:29;22.70;;;15.70;;
57023;SDS011;42916;54.346;18.562;2023-04-24T10:01:56;18.10;;;14.00;;
57023;SDS011;42916;54.346;18.562;2023-04-24T10:04:28;19.00;;;14.40;;
57023;SDS011;42916;54.346;18.562;2023-04-24T10:06:56;23.00;;;16.20;;
57023;SDS011;42916;54.346;18.562;2023-04-24T10:09:25;24.80;;;16.70;;
57023;SDS011;42916;54.346;18.562;2023-04-24T10:11:53;23.50;;;16.30;;
57023;SDS011;42916;54.346;18.562;2023-04-24T10:14:22;25.90;;;16.70;;
57023;SDS011;42916;54.346;18.562;2023-04-24T10:16:52;24.30;;;15.70;;
57023;SDS011;42916;54.346;18.562;2023-04-24T10:19:20;20.80;;;15.60;;
57023;SDS011;42916;54.346;18.562;2023-04-24T10:21:47;19.80;;;15.70;;
57023;SDS011;42916;54.346;18.562;2023-04-24T10:24:15;22.40;;;16.20;;
57023;SDS011;42916;54.346;18.562;2023-04-24T10:26:43;24.20;;;15.80;;
57023;SDS011;42916;54.346;18.562;2023-04-24T10:29:12;21.60;;;13.50;;
57023;SDS011;42916;54.346;18.562;2023-04-24T10:31:41;24.80;;;17.40;;
57023;SDS011;42916;54.346;18.562;2023-04-24T10:34:11;22.30;;;15.90;;
57023;SDS011;42916;54.346;18.562;2023-04-24T10:36:42;23.00;;;16.60;;
57023;SDS011;42916;54.346;18.562;2023-04-24T10:39:12;22.10;;;17.50;;
57023;SDS011;42916;54.346;18.562;2023-04-24T10:41:44;20.10;;;16.20;;
57023;SDS011;42916;54.346;18.562;2023-04-24T10:44:15;20.50;;;14.80;;
57023;SDS011;42916;54.346;18.562;2023-04-24T10:46:43;18.70;;;14.10;;
57023;SDS011;42916;54.346;18.562;2023-04-24T10:49:11;21.50;;;15.30;;
57023;SDS011;42916;54.346;18.562;2023-04-24T10:51:45;17.60;;;14.30;;
57023;SDS011;42916;54.346;18.562;2023-04-24T10:54:35;21.60;;;14.80;;
57023;SDS011;42916;54.346;18.562;2023-04-24T10:59:51;19.70;;;14.40;;
57023;SDS011;42916;54.346;18.562;2023-04-24T11:02:36;18.10;;;14.50;;
57023;SDS011;42916;54.346;18.562;2023-04-24T11:08:05;19.30;;;15.00;;
57023;SDS011;42916;54.346;18.562;2023-04-24T11:10:43;21.10;;;15.40;;
57023;SDS011;42916;54.346;18.562;2023-04-24T11:13:14;20.30;;;15.70;;
57023;SDS011;42916;54.346;18.562;2023-04-24T11:16:11;21.10;;;14.10;;
57023;SDS011;42916;54.346;18.562;2023-04-24T11:18:59;19.30;;;13.90;;
57023;SDS011;42916;54.346;18.562;2023-04-24T11:24:26;22.30;;;14.00;;
57023;SDS011;42916;54.346;18.562;2023-04-24T11:27:06;18.80;;;14.20;;
57023;SDS011;42916;54.346;18.562;2023-04-24T11:29:41;17.60;;;13.80;;
57023;SDS011;42916;54.346;18.562;2023-04-24T11:37:37;19.10;;;14.70;;
57023;SDS011;42916;54.346;18.562;2023-04-24T11:40:06;17.90;;;15.00;;
57023;SDS011;42916;54.346;18.562;2023-04-24T11:42:35;19.10;;;14.10;;
57023;SDS011;42916;54.346;18.562;2023-04-24T11:45:10;18.30;;;13.40;;
57023;SDS011;42916;54.346;18.562;2023-04-24T11:47:42;13.10;;;9.90;;
57023;SDS011;42916;54.346;18.562;2023-04-24T11:50:11;15.00;;;11.50;;
57023;SDS011;42916;54.346;18.562;2023-04-24T11:52:39;16.40;;;10.80;;
57023;SDS011;42916;54.346;18.562;2023-04-24T11:55:12;14.20;;;8.30;;
57023;SDS011;42916;54.346;18.562;2023-04-24T11:57:51;7.70;;;6.60;;
57023;SDS011;42916;54.346;18.562;2023-04-24T12:00:24;9.00;;;6.30;;
57023;SDS011;42916;54.346;18.562;2023-04-24T12:03:03;9.60;;;6.70;;
57023;SDS011;42916;54.346;18.562;2023-04-24T12:05:33;8.40;;;6.40;;
57023;SDS011;42916;54.346;18.562;2023-04-24T12:08:01;9.20;;;5.90;;
57023;SDS011;42916;54.346;18.562;2023-04-24T12:10:29;6.20;;;5.50;;
57023;SDS011;42916;54.346;18.562;2023-04-24T12:12:58;8.70;;;6.10;;
57023;SDS011;42916;54.346;18.562;2023-04-24T12:15:27;9.20;;;5.60;;
57023;SDS011;42916;54.346;18.562;2023-04-24T12:17:55;7.50;;;5.50;;
57023;SDS011;42916;54.346;18.562;2023-04-24T12:20:29;8.30;;;5.60;;
57023;SDS011;42916;54.346;18.562;2023-04-24T12:22:58;6.60;;;5.00;;
57023;SDS011;42916;54.346;18.562;2023-04-24T12:25:31;9.20;;;5.20;;
57023;SDS011;42916;54.346;18.562;2023-04-24T12:30:34;6.00;;;5.30;;
57023;SDS011;42916;54.346;18.562;2023-04-24T12:33:06;7.00;;;4.80;;
57023;SDS011;42916;54.346;18.562;2023-04-24T12:35:33;6.00;;;4.30;;
57023;SDS011;42916;54.346;18.562;2023-04-24T12:38:06;7.10;;;5.20;;
57023;SDS011;42916;54.346;18.562;2023-04-24T12:40:34;5.40;;;4.40;;
57023;SDS011;42916;54.346;18.562;2023-04-24T12:43:02;6.30;;;4.20;;
57023;SDS011;42916;54.346;18.562;2023-04-24T12:45:39;7.20;;;4.00;;
57023;SDS011;42916;54.346;18.562;2023-04-24T12:48:05;5.80;;;4.10;;
57023;SDS011;42916;54.346;18.562;2023-04-24T12:50:32;6.50;;;4.70;;
57023;SDS011;42916;54.346;18.562;2023-04-24T12:52:59;5.10;;;4.40;;
57023;SDS011;42916;54.346;18.562;2023-04-24T12:55:26;5.90;;;4.40;;
57023;SDS011;42916;54.346;18.562;2023-04-24T12:57:53;6.30;;;4.40;;
57023;SDS011;42916;54.346;18.562;2023-04-24T13:00:21;5.60;;;4.10;;
57023;SDS011;42916;54.346;18.562;2023-04-24T13:02:48;6.40;;;4.40;;
57023;SDS011;42916;54.346;18.562;2023-04-24T13:05:15;4.80;;;3.90;;
57023;SDS011;42916;54.346;18.562;2023-04-24T13:07:42;7.40;;;4.70;;
57023;SDS011;42916;54.346;18.562;2023-04-24T13:10:09;5.50;;;4.10;;
57023;SDS011;42916;54.346;18.562;2023-04-24T13:12:36;6.50;;;4.40;;
57023;SDS011;42916;54.346;18.562;2023-04-24T13:15:04;5.90;;;4.40;;
57023;SDS011;42916;54.346;18.562;2023-04-24T13:17:31;6.40;;;4.20;;
57023;SDS011;42916;54.346;18.562;2023-04-24T13:19:58;7.10;;;4.50;;
57023;SDS011;42916;54.346;18.562;2023-04-24T13:22:25;5.40;;;4.30;;
57023;SDS011;42916;54.346;18.562;2023-04-24T13:24:51;6.50;;;4.20;;
57023;SDS011;42916;54.346;18.562;2023-04-24T13:27:18;5.40;;;4.00;;
57023;SDS011;42916;54.346;18.562;2023-04-24T13:29:45;5.90;;;4.30;;
57023;SDS011;42916;54.346;18.562;2023-04-24T13:32:13;6.60;;;4.30;;
57023;SDS011;42916;54.346;18.562;2023-04-24T13:34:39;4.90;;;4.10;;
57023;SDS011;42916;54.346;18.562;2023-04-24T13:37:06;8.10;;;3.90;;
57023;SDS011;42916;54.346;18.562;2023-04-24T13:39:34;4.50;;;3.90;;
57023;SDS011;42916;54.346;18.562;2023-04-24T13:42:02;4.80;;;3.80;;
57023;SDS011;42916;54.346;18.562;2023-04-24T13:44:29;8.90;;;4.20;;
57023;SDS011;42916;54.346;18.562;2023-04-24T13:46:55;6.80;;;3.80;;
57023;SDS011;42916;54.346;18.562;2023-04-24T13:49:23;4.20;;;3.80;;
57023;SDS011;42916;54.346;18.562;2023-04-24T13:51:54;4.80;;;4.10;;
57023;SDS011;42916;54.346;18.562;2023-04-24T13:54:21;5.60;;;3.90;;
57023;SDS011;42916;54.346;18.562;2023-04-24T13:56:50;9.50;;;3.80;;
57023;SDS011;42916;54.346;18.562;2023-04-24T13:59:19;4.50;;;3.90;;
57023;SDS011;42916;54.346;18.562;2023-04-24T14:01:47;4.80;;;4.30;;
57023;SDS011;42916;54.346;18.562;2023-04-24T14:04:14;5.10;;;4.30;;
57023;SDS011;42916;54.346;18.562;2023-04-24T14:06:41;9.10;;;5.00;;
57023;SDS011;42916;54.346;18.562;2023-04-24T14:09:07;5.20;;;4.30;;
57023;SDS011;42916;54.346;18.562;2023-04-24T14:11:34;5.50;;;4.40;;
57023;SDS011;42916;54.346;18.562;2023-04-24T14:14:07;5.90;;;4.50;;
57023;SDS011;42916;54.346;18.562;2023-04-24T14:16:36;5.40;;;4.40;;
57023;SDS011;42916;54.346;18.562;2023-04-24T14:19:02;5.40;;;3.80;;
57023;SDS011;42916;54.346;18.562;2023-04-24T14:21:31;7.20;;;3.70;;
57023;SDS011;42916;54.346;18.562;2023-04-24T14:23:58;3.90;;;3.50;;
57023;SDS011;42916;54.346;18.562;2023-04-24T14:26:28;4.30;;;3.90;;
57023;SDS011;42916;54.346;18.562;2023-04-24T14:29:06;4.90;;;4.20;;
57023;SDS011;42916;54.346;18.562;2023-04-24T14:31:33;6.70;;;3.90;;
57023;SDS011;42916;54.346;18.562;2023-04-24T14:34:00;6.20;;;4.00;;
57023;SDS011;42916;54.346;18.562;2023-04-24T14:36:26;4.70;;;4.00;;
57023;SDS011;42916;54.346;18.562;2023-04-24T14:38:53;6.00;;;4.30;;
57023;SDS011;42916;54.346;18.562;2023-04-24T14:41:20;4.80;;;3.90;;